sensor_id;sensor_type;location;lat;lon;timestamp;pressure;altitude;pressure_sealevel;temperature;humidity
68329;BME280;55182;56.864;60.554;2023-05-24T00:02:12;75256.75;;;-143.60;63.83
68329;BME280;55182;56.864;60.554;2023-05-24T00:04:37;75258.75;;;-143.60;65.16
68329;BME280;55182;56.864;60.554;2023-05-24T00:07:03;75254.72;;;-143.60;64.61
68329;BME280;55182;56.864;60.554;2023-05-24T00:09:29;75252.72;;;-143.60;65.67
68329;BME280;55182;56.864;60.554;2023-05-24T00:11:54;75256.75;;;-143.60;66.31
68329;BME280;55182;56.864;60.554;2023-05-24T00:14:20;75250.72;;;-143.60;66.63
68329;BME280;55182;56.864;60.554;2023-05-24T00:16:45;75242.69;;;-143.60;66.88
68329;BME280;55182;56.864;60.554;2023-05-24T00:19:11;75230.63;;;-143.60;67.66
68329;BME280;55182;56.864;60.554;2023-05-24T00:21:36;75214.56;;;-143.60;68.91
68329;BME280;55182;56.864;60.554;2023-05-24T00:24:02;75206.53;;;-143.60;69.92
68329;BME280;55182;56.864;60.554;2023-05-24T00:26:27;75198.47;;;-143.60;71.92
68329;BME280;55182;56.864;60.554;2023-05-24T00:28:54;75182.41;;;-143.60;72.60
68329;BME280;55182;56.864;60.554;2023-05-24T00:31:20;75178.41;;;-143.60;72.94
68329;BME280;55182;56.864;60.554;2023-05-24T00:33:45;75174.38;;;-143.60;72.62
68329;BME280;55182;56.864;60.554;2023-05-24T00:36:11;75170.34;;;-143.60;72.24
68329;BME280;55182;56.864;60.554;2023-05-24T00:38:36;75162.31;;;-143.60;72.05
68329;BME280;55182;56.864;60.554;2023-05-24T00:41:01;75164.34;;;-143.60;71.17
68329;BME280;55182;56.864;60.554;2023-05-24T00:43:28;75160.31;;;-143.60;70.78
68329;BME280;55182;56.864;60.554;2023-05-24T00:48:48;75158.31;;;-143.60;68.37
68329;BME280;55182;56.864;60.554;2023-05-24T00:51:14;75156.28;;;-143.60;66.98
68329;BME280;55182;56.864;60.554;2023-05-24T00:53:40;75154.28;;;-143.60;66.94
68329;BME280;55182;56.864;60.554;2023-05-24T00:56:07;75146.25;;;-143.60;66.33
68329;BME280;55182;56.864;60.554;2023-05-24T00:58:33;75150.25;;;-143.60;65.48
68329;BME280;55182;56.864;60.554;2023-05-24T01:01:00;75150.25;;;-143.60;64.12
68329;BME280;55182;56.864;60.554;2023-05-24T01:03:26;75144.25;;;-143.60;62.54
68329;BME280;55182;56.864;60.554;2023-05-24T01:05:52;75142.22;;;-143.60;61.49
68329;BME280;55182;56.864;60.554;2023-05-24T01:13:32;75124.16;;;-143.60;59.15
68329;BME280;55182;56.864;60.554;2023-05-24T01:16:04;75110.09;;;-143.60;58.19
68329;BME280;55182;56.864;60.554;2023-05-24T01:18:32;75104.06;;;-143.60;58.41
68329;BME280;55182;56.864;60.554;2023-05-24T01:26:44;75077.94;;;-143.60;58.05
68329;BME280;55182;56.864;60.554;2023-05-24T01:29:12;75069.91;;;-143.60;56.41
68329;BME280;55182;56.864;60.554;2023-05-24T01:31:38;75065.88;;;-143.60;56.46
68329;BME280;55182;56.864;60.554;2023-05-24T01:34:03;75057.84;;;-143.60;56.69
68329;BME280;55182;56.864;60.554;2023-05-24T01:36:29;75049.81;;;-143.60;57.15
68329;BME280;55182;56.864;60.554;2023-05-24T01:38:54;75045.81;;;-143.60;56.62
68329;BME280;55182;56.864;60.554;2023-05-24T01:41:33;75033.75;;;-143.60;56.10
68329;BME280;55182;56.864;60.554;2023-05-24T01:44:43;75025.72;;;-143.60;56.30
68329;BME280;55182;56.864;60.554;2023-05-24T01:46:52;75021.69;;;-143.60;57.30
68329;BME280;55182;56.864;60.554;2023-05-24T01:49:24;75025.72;;;-143.60;56.60
68329;BME280;55182;56.864;60.554;2023-05-24T01:51:59;75019.69;;;-143.60;56.40
68329;BME280;55182;56.864;60.554;2023-05-24T01:54:27;75017.69;;;-143.60;56.63
68329;BME280;55182;56.864;60.554;2023-05-24T01:56:54;75013.66;;;-143.60;57.38
68329;BME280;55182;56.864;60.554;2023-05-24T01:59:21;75005.63;;;-143.60;57.34
68329;BME280;55182;56.864;60.554;2023-05-24T02:01:48;75005.63;;;-143.60;57.15
68329;BME280;55182;56.864;60.554;2023-05-24T02:04:13;74997.59;;;-143.60;57.55
68329;BME280;55182;56.864;60.554;2023-05-24T02:06:39;74993.56;;;-143.60;57.93
68329;BME280;55182;56.864;60.554;2023-05-24T02:09:06;74983.53;;;-143.60;58.37
68329;BME280;55182;56.864;60.554;2023-05-24T02:11:32;74977.50;;;-143.60;58.17
68329;BME280;55182;56.864;60.554;2023-05-24T02:13:58;74973.47;;;-143.60;57.25
68329;BME280;55182;56.864;60.554;2023-05-24T02:16:23;74965.44;;;-143.60;58.42
68329;BME280;55182;56.864;60.554;2023-05-24T02:18:49;74969.47;;;-143.60;58.70
68329;BME280;55182;56.864;60.554;2023-05-24T02:21:14;74953.41;;;-143.60;57.03
68329;BME280;55182;56.864;60.554;2023-05-24T02:23:40;74939.31;;;-143.60;56.11
68329;BME280;55182;56.864;60.554;2023-05-24T02:26:06;74925.28;;;-143.60;55.47
68329;BME280;55182;56.864;60.554;2023-05-24T02:28:32;74907.19;;;-143.60;55.55
68329;BME280;55182;56.864;60.554;2023-05-24T02:30:58;74897.16;;;-143.60;55.39
68329;BME280;55182;56.864;60.554;2023-05-24T02:33:23;74881.06;;;-143.60;55.57
68329;BME280;55182;56.864;60.554;2023-05-24T02:35:49;74877.06;;;-143.60;55.13
68329;BME280;55182;56.864;60.554;2023-05-24T02:38:14;74860.97;;;-143.60;54.92
68329;BME280;55182;56.864;60.554;2023-05-24T02:40:40;74850.94;;;-143.60;55.15
68329;BME280;55182;56.864;60.554;2023-05-24T02:43:05;74840.91;;;-143.60;55.68
68329;BME280;55182;56.864;60.554;2023-05-24T02:45:31;74834.88;;;-143.60;53.79
68329;BME280;55182;56.864;60.554;2023-05-24T02:47:56;74816.78;;;-143.60;53.50
68329;BME280;55182;56.864;60.554;2023-05-24T02:50:22;74808.75;;;-143.60;54.07
68329;BME280;55182;56.864;60.554;2023-05-24T02:52:47;74806.75;;;-143.60;53.43
68329;BME280;55182;56.864;60.554;2023-05-24T02:55:13;74792.69;;;-143.60;52.56
68329;BME280;55182;56.864;60.554;2023-05-24T02:57:38;74772.59;;;-143.60;50.19
68329;BME280;55182;56.864;60.554;2023-05-24T03:00:04;74752.50;;;-143.60;50.66
68329;BME280;55182;56.864;60.554;2023-05-24T03:02:30;74734.44;;;-143.60;50.77
68329;BME280;55182;56.864;60.554;2023-05-24T03:04:55;74716.34;;;-143.60;50.70
68329;BME280;55182;56.864;60.554;2023-05-24T03:07:21;74704.28;;;-143.60;50.95
68329;BME280;55182;56.864;60.554;2023-05-24T03:09:46;74694.25;;;-143.60;50.25
68329;BME280;55182;56.864;60.554;2023-05-24T03:12:12;74680.19;;;-143.60;49.19
68329;BME280;55182;56.864;60.554;2023-05-24T03:14:38;74666.13;;;-143.60;49.51
68329;BME280;55182;56.864;60.554;2023-05-24T03:17:04;74658.09;;;-143.60;51.05
68329;BME280;55182;56.864;60.554;2023-05-24T03:19:29;74654.06;;;-143.60;48.95
68329;BME280;55182;56.864;60.554;2023-05-24T03:21:56;74640.03;;;-143.60;49.09
68329;BME280;55182;56.864;60.554;2023-05-24T03:24:22;74631.97;;;-143.60;47.55
68329;BME280;55182;56.864;60.554;2023-05-24T03:26:48;74619.94;;;-143.60;47.83
68329;BME280;55182;56.864;60.554;2023-05-24T03:29:14;74599.84;;;-143.60;47.44
68329;BME280;55182;56.864;60.554;2023-05-24T03:31:41;74587.78;;;-143.60;47.28
68329;BME280;55182;56.864;60.554;2023-05-24T03:34:06;74575.75;;;-143.60;46.89
68329;BME280;55182;56.864;60.554;2023-05-24T03:36:34;74563.69;;;-143.60;47.13
68329;BME280;55182;56.864;60.554;2023-05-24T03:38:59;74551.63;;;-143.60;46.96
68329;BME280;55182;56.864;60.554;2023-05-24T03:41:25;74535.56;;;-143.60;46.04
68329;BME280;55182;56.864;60.554;2023-05-24T03:43:51;74525.53;;;-143.60;45.48
68329;BME280;55182;56.864;60.554;2023-05-24T03:46:17;74503.44;;;-143.60;46.69
68329;BME280;55182;56.864;60.554;2023-05-24T03:48:43;74499.41;;;-143.60;45.86
68329;BME280;55182;56.864;60.554;2023-05-24T03:51:08;74487.34;;;-143.60;45.50
68329;BME280;55182;56.864;60.554;2023-05-24T03:53:34;74469.28;;;-143.60;44.74
68329;BME280;55182;56.864;60.554;2023-05-24T03:55:59;74455.22;;;-143.60;44.85
68329;BME280;55182;56.864;60.554;2023-05-24T03:58:24;74435.13;;;-143.60;43.06
68329;BME280;55182;56.864;60.554;2023-05-24T04:00:50;74419.06;;;-143.60;43.18
68329;BME280;55182;56.864;60.554;2023-05-24T04:03:17;74398.97;;;-143.60;43.54
68329;BME280;55182;56.864;60.554;2023-05-24T04:05:43;74394.97;;;-143.60;43.34
68329;BME280;55182;56.864;60.554;2023-05-24T04:08:08;74374.88;;;-143.60;43.11
68329;BME280;55182;56.864;60.554;2023-05-24T04:10:36;74354.78;;;-143.60;42.22
68329;BME280;55182;56.864;60.554;2023-05-24T04:13:02;74344.75;;;-143.60;41.97
68329;BME280;55182;56.864;60.554;2023-05-24T04:15:27;74330.69;;;-143.60;42.92
68329;BME280;55182;56.864;60.554;2023-05-24T04:17:53;74320.66;;;-143.60;42.21
68329;BME280;55182;56.864;60.554;2023-05-24T04:20:20;74310.59;;;-143.60;41.71
68329;BME280;55182;56.864;60.554;2023-05-24T04:22:48;74298.53;;;-143.60;42.13
68329;BME280;55182;56.864;60.554;2023-05-24T04:25:13;74286.50;;;-143.60;40.77
68329;BME280;55182;56.864;60.554;2023-05-24T04:27:39;74268.41;;;-143.60;40.83
68329;BME280;55182;56.864;60.554;2023-05-24T04:30:06;74246.31;;;-143.60;40.30
68329;BME280;55182;56.864;60.554;2023-05-24T04:32:34;74230.25;;;-143.60;40.22
68329;BME280;55182;56.864;60.554;2023-05-24T04:35:00;74210.19;;;-143.60;39.76
68329;BME280;55182;56.864;60.554;2023-05-24T04:37:25;74198.13;;;-143.60;39.22
68329;BME280;55182;56.864;60.554;2023-05-24T04:39:51;74172.00;;;-143.60;38.89
68329;BME280;55182;56.864;60.554;2023-05-24T04:42:17;74155.94;;;-143.60;38.70
68329;BME280;55182;56.864;60.554;2023-05-24T04:44:43;74133.84;;;-143.60;38.46
68329;BME280;55182;56.864;60.554;2023-05-24T04:47:09;74109.75;;;-143.60;38.62
68329;BME280;55182;56.864;60.554;2023-05-24T04:49:34;74085.66;;;-143.60;38.07
68329;BME280;55182;56.864;60.554;2023-05-24T04:52:00;74081.63;;;-143.60;38.15
68329;BME280;55182;56.864;60.554;2023-05-24T04:54:26;74057.53;;;-143.60;37.85
68329;BME280;55182;56.864;60.554;2023-05-24T04:56:51;74031.41;;;-143.60;37.48
68329;BME280;55182;56.864;60.554;2023-05-24T04:59:17;74017.38;;;-143.60;37.65
68329;BME280;55182;56.864;60.554;2023-05-24T05:01:42;74013.34;;;-143.60;36.70
68329;BME280;55182;56.864;60.554;2023-05-24T05:04:07;73997.28;;;-143.60;36.48
68329;BME280;55182;56.864;60.554;2023-05-24T05:06:33;73979.19;;;-143.60;35.83
68329;BME280;55182;56.864;60.554;2023-05-24T05:08:59;73961.13;;;-143.60;35.78
68329;BME280;55182;56.864;60.554;2023-05-24T05:11:24;73961.13;;;-143.60;34.36
68329;BME280;55182;56.864;60.554;2023-05-24T05:13:49;73945.06;;;-143.60;34.15
68329;BME280;55182;56.864;60.554;2023-05-24T05:16:15;73929.00;;;-143.60;33.50
68329;BME280;55182;56.864;60.554;2023-05-24T05:18:40;73902.88;;;-143.60;33.03
68329;BME280;55182;56.864;60.554;2023-05-24T05:21:06;73896.84;;;-143.60;32.90
68329;BME280;55182;56.864;60.554;2023-05-24T05:23:31;73874.75;;;-143.60;30.72
68329;BME280;55182;56.864;60.554;2023-05-24T05:25:57;73848.66;;;-143.60;31.37
68329;BME280;55182;56.864;60.554;2023-05-24T05:28:23;73838.63;;;-143.60;31.85
68329;BME280;55182;56.864;60.554;2023-05-24T05:30:49;73828.56;;;-143.60;30.87
68329;BME280;55182;56.864;60.554;2023-05-24T05:33:14;73826.56;;;-143.60;30.57
68329;BME280;55182;56.864;60.554;2023-05-24T05:35:39;73812.50;;;-143.60;30.07
68329;BME280;55182;56.864;60.554;2023-05-24T05:38:05;73800.47;;;-143.60;28.94
68329;BME280;55182;56.864;60.554;2023-05-24T05:40:30;73788.41;;;-143.60;27.87
68329;BME280;55182;56.864;60.554;2023-05-24T05:42:57;73770.34;;;-143.60;28.72
68329;BME280;55182;56.864;60.554;2023-05-24T05:45:23;73760.28;;;-143.60;28.72
68329;BME280;55182;56.864;60.554;2023-05-24T05:47:48;73748.25;;;-143.60;28.76
68329;BME280;55182;56.864;60.554;2023-05-24T05:50:14;73732.19;;;-143.60;28.84
68329;BME280;55182;56.864;60.554;2023-05-24T05:52:39;73718.13;;;-143.60;27.80
68329;BME280;55182;56.864;60.554;2023-05-24T05:55:04;73700.03;;;-143.60;27.81
68329;BME280;55182;56.864;60.554;2023-05-24T05:57:30;73679.97;;;-143.60;27.37
68329;BME280;55182;56.864;60.554;2023-05-24T05:59:56;73671.94;;;-143.60;27.94
68329;BME280;55182;56.864;60.554;2023-05-24T06:02:21;73653.84;;;-143.60;27.33
68329;BME280;55182;56.864;60.554;2023-05-24T06:04:47;73637.78;;;-143.60;26.97
68329;BME280;55182;56.864;60.554;2023-05-24T06:07:14;73625.75;;;-143.60;27.08
68329;BME280;55182;56.864;60.554;2023-05-24T06:09:39;73611.69;;;-143.60;28.13
68329;BME280;55182;56.864;60.554;2023-05-24T06:12:05;73607.66;;;-143.60;27.76
68329;BME280;55182;56.864;60.554;2023-05-24T06:14:30;73599.63;;;-143.60;26.90
68329;BME280;55182;56.864;60.554;2023-05-24T06:16:55;73589.59;;;-143.60;27.43
68329;BME280;55182;56.864;60.554;2023-05-24T06:19:21;73591.59;;;-143.60;27.77
68329;BME280;55182;56.864;60.554;2023-05-24T06:21:47;73583.56;;;-143.60;27.42
68329;BME280;55182;56.864;60.554;2023-05-24T06:24:13;73569.50;;;-143.60;27.90
68329;BME280;55182;56.864;60.554;2023-05-24T06:26:38;73559.47;;;-143.60;27.34
68329;BME280;55182;56.864;60.554;2023-05-24T06:29:04;73547.41;;;-143.60;26.99
68329;BME280;55182;56.864;60.554;2023-05-24T06:31:29;73535.38;;;-143.60;27.37
68329;BME280;55182;56.864;60.554;2023-05-24T06:33:54;73523.31;;;-143.60;26.55
68329;BME280;55182;56.864;60.554;2023-05-24T06:36:20;73507.25;;;-143.60;26.26
68329;BME280;55182;56.864;60.554;2023-05-24T06:38:46;73491.19;;;-143.60;26.40
68329;BME280;55182;56.864;60.554;2023-05-24T06:41:12;73479.13;;;-143.60;25.20
68329;BME280;55182;56.864;60.554;2023-05-24T06:43:37;73471.09;;;-143.60;25.53
68329;BME280;55182;56.864;60.554;2023-05-24T06:46:03;73455.03;;;-143.60;25.13
68329;BME280;55182;56.864;60.554;2023-05-24T06:48:28;73447.00;;;-143.60;24.74
68329;BME280;55182;56.864;60.554;2023-05-24T06:50:53;73430.94;;;-143.60;24.42
68329;BME280;55182;56.864;60.554;2023-05-24T06:53:19;73418.91;;;-143.60;24.23
68329;BME280;55182;56.864;60.554;2023-05-24T06:55:44;73402.84;;;-143.60;24.17
68329;BME280;55182;56.864;60.554;2023-05-24T06:58:10;73382.75;;;-143.60;23.98
68329;BME280;55182;56.864;60.554;2023-05-24T07:00:35;73366.69;;;-143.60;23.97
68329;BME280;55182;56.864;60.554;2023-05-24T07:03:01;73342.59;;;-143.60;23.30
68329;BME280;55182;56.864;60.554;2023-05-24T07:05:26;73324.53;;;-143.60;22.35
68329;BME280;55182;56.864;60.554;2023-05-24T07:07:51;73294.41;;;-143.60;23.34
68329;BME280;55182;56.864;60.554;2023-05-24T07:10:17;73262.28;;;-143.60;22.69
68329;BME280;55182;56.864;60.554;2023-05-24T07:12:42;73222.09;;;-143.60;22.99
68329;BME280;55182;56.864;60.554;2023-05-24T07:15:08;73192.00;;;-143.60;23.33
68329;BME280;55182;56.864;60.554;2023-05-24T07:17:34;73161.88;;;-143.60;22.52
68329;BME280;55182;56.864;60.554;2023-05-24T07:20:00;73129.75;;;-143.60;22.99
68329;BME280;55182;56.864;60.554;2023-05-24T07:22:25;73123.72;;;-143.60;22.63
68329;BME280;55182;56.864;60.554;2023-05-24T07:24:51;73117.69;;;-143.60;22.43
68329;BME280;55182;56.864;60.554;2023-05-24T07:27:16;73123.72;;;-143.60;22.08
68329;BME280;55182;56.864;60.554;2023-05-24T07:29:42;73129.75;;;-143.60;21.80
68329;BME280;55182;56.864;60.554;2023-05-24T07:32:07;73113.69;;;-143.60;21.33
68329;BME280;55182;56.864;60.554;2023-05-24T07:34:32;73109.66;;;-143.60;22.40
68329;BME280;55182;56.864;60.554;2023-05-24T07:36:58;73109.66;;;-143.60;22.11
68329;BME280;55182;56.864;60.554;2023-05-24T07:39:24;73095.59;;;-143.60;22.12
68329;BME280;55182;56.864;60.554;2023-05-24T07:41:49;73095.59;;;-143.60;20.91
68329;BME280;55182;56.864;60.554;2023-05-24T07:44:15;73093.59;;;-143.60;21.36
68329;BME280;55182;56.864;60.554;2023-05-24T07:46:41;73099.63;;;-143.60;21.88
68329;BME280;55182;56.864;60.554;2023-05-24T07:49:07;73105.66;;;-143.60;22.67
68329;BME280;55182;56.864;60.554;2023-05-24T07:51:32;73109.66;;;-143.60;22.85
68329;BME280;55182;56.864;60.554;2023-05-24T07:53:57;73107.66;;;-143.60;21.93
68329;BME280;55182;56.864;60.554;2023-05-24T07:56:23;73111.66;;;-143.60;22.21
68329;BME280;55182;56.864;60.554;2023-05-24T07:58:49;73123.72;;;-143.60;21.66
68329;BME280;55182;56.864;60.554;2023-05-24T08:01:14;73141.78;;;-143.60;21.66
68329;BME280;55182;56.864;60.554;2023-05-24T08:03:40;73145.81;;;-143.60;22.37
68329;BME280;55182;56.864;60.554;2023-05-24T08:06:05;73139.78;;;-143.60;21.90
68329;BME280;55182;56.864;60.554;2023-05-24T08:08:30;73155.84;;;-143.60;21.98
68329;BME280;55182;56.864;60.554;2023-05-24T08:10:56;73161.88;;;-143.60;21.72
68329;BME280;55182;56.864;60.554;2023-05-24T08:13:21;73143.78;;;-143.60;22.28
68329;BME280;55182;56.864;60.554;2023-05-24T08:15:47;73137.78;;;-143.60;22.21
68329;BME280;55182;56.864;60.554;2023-05-24T08:18:12;73133.75;;;-143.60;22.28
68329;BME280;55182;56.864;60.554;2023-05-24T08:20:38;73115.69;;;-143.60;22.13
68329;BME280;55182;56.864;60.554;2023-05-24T08:23:04;73117.69;;;-143.60;21.85
68329;BME280;55182;56.864;60.554;2023-05-24T08:25:29;73105.66;;;-143.60;22.85
68329;BME280;55182;56.864;60.554;2023-05-24T08:27:55;73097.63;;;-143.60;22.29
68329;BME280;55182;56.864;60.554;2023-05-24T08:30:21;73077.53;;;-143.60;22.41
68329;BME280;55182;56.864;60.554;2023-05-24T08:32:47;73057.47;;;-143.60;22.33
68329;BME280;55182;56.864;60.554;2023-05-24T08:35:12;73045.41;;;-143.60;21.96
68329;BME280;55182;56.864;60.554;2023-05-24T08:37:38;73031.34;;;-143.60;22.65
68329;BME280;55182;56.864;60.554;2023-05-24T08:40:03;73021.31;;;-143.60;21.46
68329;BME280;55182;56.864;60.554;2023-05-24T08:42:29;73013.28;;;-143.60;22.09
68329;BME280;55182;56.864;60.554;2023-05-24T08:44:58;73007.25;;;-143.60;22.06
68329;BME280;55182;56.864;60.554;2023-05-24T08:47:27;72999.22;;;-143.60;21.69
68329;BME280;55182;56.864;60.554;2023-05-24T08:49:53;72983.16;;;-143.60;21.63
68329;BME280;55182;56.864;60.554;2023-05-24T08:52:20;72981.16;;;-143.60;21.57
68329;BME280;55182;56.864;60.554;2023-05-24T08:54:46;72969.09;;;-143.60;21.52
68329;BME280;55182;56.864;60.554;2023-05-24T08:57:13;72959.06;;;-143.60;21.47
68329;BME280;55182;56.864;60.554;2023-05-24T08:59:39;72947.03;;;-143.60;21.39
68329;BME280;55182;56.864;60.554;2023-05-24T09:02:05;72945.00;;;-143.60;21.56
68329;BME280;55182;56.864;60.554;2023-05-24T09:04:33;72936.97;;;-143.60;21.11
68329;BME280;55182;56.864;60.554;2023-05-24T09:07:00;72949.03;;;-143.60;21.24
68329;BME280;55182;56.864;60.554;2023-05-24T09:09:26;72943.00;;;-143.60;21.49
68329;BME280;55182;56.864;60.554;2023-05-24T09:11:51;72941.00;;;-143.60;21.22
68329;BME280;55182;56.864;60.554;2023-05-24T09:14:17;72932.97;;;-143.60;21.49
68329;BME280;55182;56.864;60.554;2023-05-24T09:16:44;72916.91;;;-143.60;21.27
68329;BME280;55182;56.864;60.554;2023-05-24T09:19:10;72896.81;;;-143.60;21.55
68329;BME280;55182;56.864;60.554;2023-05-24T09:21:36;72880.75;;;-143.60;21.61
68329;BME280;55182;56.864;60.554;2023-05-24T09:24:01;72872.72;;;-143.60;20.69
68329;BME280;55182;56.864;60.554;2023-05-24T09:26:27;72872.72;;;-143.60;21.72
68329;BME280;55182;56.864;60.554;2023-05-24T09:28:53;72872.72;;;-143.60;21.21
68329;BME280;55182;56.864;60.554;2023-05-24T09:31:19;72888.78;;;-143.60;20.81
68329;BME280;55182;56.864;60.554;2023-05-24T09:33:55;72900.84;;;-143.60;20.94
68329;BME280;55182;56.864;60.554;2023-05-24T09:36:21;72900.84;;;-143.60;21.55
68329;BME280;55182;56.864;60.554;2023-05-24T09:38:46;72876.75;;;-143.60;21.64
68329;BME280;55182;56.864;60.554;2023-05-24T09:41:12;72838.59;;;-143.60;20.85
68329;BME280;55182;56.864;60.554;2023-05-24T09:43:46;72792.41;;;-143.60;20.89
68329;BME280;55182;56.864;60.554;2023-05-24T09:46:15;72756.28;;;-143.60;20.78
68329;BME280;55182;56.864;60.554;2023-05-24T09:48:41;72752.25;;;-143.60;20.67
68329;BME280;55182;56.864;60.554;2023-05-24T09:51:19;72768.31;;;-143.60;20.91
68329;BME280;55182;56.864;60.554;2023-05-24T09:53:45;72768.31;;;-143.60;20.77
68329;BME280;55182;56.864;60.554;2023-05-24T09:56:11;72782.38;;;-143.60;20.55
68329;BME280;55182;56.864;60.554;2023-05-24T10:01:22;72820.53;;;-143.60;20.79
68329;BME280;55182;56.864;60.554;2023-05-24T10:03:55;72828.56;;;-143.60;20.94
68329;BME280;55182;56.864;60.554;2023-05-24T10:06:21;72846.63;;;-143.60;21.31
68329;BME280;55182;56.864;60.554;2023-05-24T10:08:47;72860.69;;;-143.60;21.10
68329;BME280;55182;56.864;60.554;2023-05-24T10:11:12;72894.81;;;-143.60;21.10
68329;BME280;55182;56.864;60.554;2023-05-24T10:13:38;72934.97;;;-143.60;21.27
68329;BME280;55182;56.864;60.554;2023-05-24T10:16:03;72961.06;;;-143.60;21.00
68329;BME280;55182;56.864;60.554;2023-05-24T10:18:30;72963.09;;;-143.60;21.19
68329;BME280;55182;56.864;60.554;2023-05-24T10:20:55;72965.09;;;-143.60;21.20
68329;BME280;55182;56.864;60.554;2023-05-24T10:23:21;72953.03;;;-143.60;21.84
68329;BME280;55182;56.864;60.554;2023-05-24T10:25:51;72947.03;;;-143.60;21.23
68329;BME280;55182;56.864;60.554;2023-05-24T10:28:18;72926.94;;;-143.60;21.35
68329;BME280;55182;56.864;60.554;2023-05-24T10:33:25;72896.81;;;-143.60;21.14
68329;BME280;55182;56.864;60.554;2023-05-24T10:35:51;72894.81;;;-143.60;21.02
68329;BME280;55182;56.864;60.554;2023-05-24T10:38:18;72890.81;;;-143.60;22.08
68329;BME280;55182;56.864;60.554;2023-05-24T10:40:44;72882.75;;;-143.60;21.62
68329;BME280;55182;56.864;60.554;2023-05-24T10:43:10;72876.75;;;-143.60;21.20
68329;BME280;55182;56.864;60.554;2023-05-24T10:45:36;72868.72;;;-143.60;21.28
68329;BME280;55182;56.864;60.554;2023-05-24T10:50:36;72876.75;;;-143.60;20.66
68329;BME280;55182;56.864;60.554;2023-05-24T10:53:11;72884.78;;;-143.60;21.08
68329;BME280;55182;56.864;60.554;2023-05-24T10:58:25;72886.78;;;-143.60;21.19
68329;BME280;55182;56.864;60.554;2023-05-24T11:00:51;72884.78;;;-143.60;21.33
68329;BME280;55182;56.864;60.554;2023-05-24T11:03:17;72880.75;;;-143.60;21.43
68329;BME280;55182;56.864;60.554;2023-05-24T11:08:11;72882.75;;;-143.60;20.96
68329;BME280;55182;56.864;60.554;2023-05-24T11:10:36;72878.75;;;-143.60;21.40
68329;BME280;55182;56.864;60.554;2023-05-24T11:13:03;72870.72;;;-143.60;21.10
68329;BME280;55182;56.864;60.554;2023-05-24T11:15:31;72860.69;;;-143.60;21.05
68329;BME280;55182;56.864;60.554;2023-05-24T11:20:33;72858.66;;;-143.60;20.67
68329;BME280;55182;56.864;60.554;2023-05-24T11:23:01;72866.72;;;-143.60;20.76
68329;BME280;55182;56.864;60.554;2023-05-24T11:25:27;72856.66;;;-143.60;21.47
68329;BME280;55182;56.864;60.554;2023-05-24T11:27:57;72832.56;;;-143.60;21.14
68329;BME280;55182;56.864;60.554;2023-05-24T11:30:23;72784.38;;;-143.60;20.89
68329;BME280;55182;56.864;60.554;2023-05-24T11:32:48;72671.94;;;-143.60;21.35
68329;BME280;55182;56.864;60.554;2023-05-24T11:35:14;72533.41;;;-143.60;20.16
68329;BME280;55182;56.864;60.554;2023-05-24T11:37:40;72453.13;;;-143.60;20.14
68329;BME280;55182;56.864;60.554;2023-05-24T11:40:06;72390.88;;;-143.60;20.32
68329;BME280;55182;56.864;60.554;2023-05-24T11:42:33;72414.97;;;-143.60;19.54
68329;BME280;55182;56.864;60.554;2023-05-24T11:44:58;72475.19;;;-143.60;19.94
68329;BME280;55182;56.864;60.554;2023-05-24T11:47:24;72529.41;;;-143.60;19.92
68329;BME280;55182;56.864;60.554;2023-05-24T11:49:50;72579.59;;;-143.60;20.23
68329;BME280;55182;56.864;60.554;2023-05-24T11:52:16;72655.88;;;-143.60;19.87
68329;BME280;55182;56.864;60.554;2023-05-24T11:54:43;72720.13;;;-143.60;20.34
68329;BME280;55182;56.864;60.554;2023-05-24T11:57:11;72772.34;;;-143.60;20.44
68329;BME280;55182;56.864;60.554;2023-05-24T11:59:36;72832.56;;;-143.60;20.69
68329;BME280;55182;56.864;60.554;2023-05-24T12:02:03;72860.69;;;-143.60;20.61
68329;BME280;55182;56.864;60.554;2023-05-24T12:04:29;72882.75;;;-143.60;21.03
68329;BME280;55182;56.864;60.554;2023-05-24T12:06:55;72904.84;;;-143.60;21.08
68329;BME280;55182;56.864;60.554;2023-05-24T12:09:21;72918.91;;;-143.60;21.21
68329;BME280;55182;56.864;60.554;2023-05-24T12:11:47;72936.97;;;-143.60;21.30
68329;BME280;55182;56.864;60.554;2023-05-24T12:14:13;72941.00;;;-143.60;21.44
68329;BME280;55182;56.864;60.554;2023-05-24T12:16:40;72936.97;;;-143.60;22.42
68329;BME280;55182;56.864;60.554;2023-05-24T12:19:06;72930.97;;;-143.60;22.60
68329;BME280;55182;56.864;60.554;2023-05-24T12:21:32;72920.91;;;-143.60;22.24
68329;BME280;55182;56.864;60.554;2023-05-24T12:24:07;72860.69;;;-143.60;22.10
68329;BME280;55182;56.864;60.554;2023-05-24T12:26:34;72780.38;;;-143.60;21.35
68329;BME280;55182;56.864;60.554;2023-05-24T12:29:00;72651.88;;;-143.60;20.86
68329;BME280;55182;56.864;60.554;2023-05-24T12:31:26;72587.63;;;-143.60;20.48
68329;BME280;55182;56.864;60.554;2023-05-24T12:33:52;72611.72;;;-143.60;20.61
68329;BME280;55182;56.864;60.554;2023-05-24T12:36:18;72641.84;;;-143.60;20.89
68329;BME280;55182;56.864;60.554;2023-05-24T12:38:43;72643.84;;;-143.60;20.25
68329;BME280;55182;56.864;60.554;2023-05-24T12:41:09;72647.84;;;-143.60;20.19
68329;BME280;55182;56.864;60.554;2023-05-24T12:43:35;72575.59;;;-143.60;21.16
68329;BME280;55182;56.864;60.554;2023-05-24T12:46:00;72515.34;;;-143.60;20.23
68329;BME280;55182;56.864;60.554;2023-05-24T12:48:26;72509.31;;;-143.60;20.09
68329;BME280;55182;56.864;60.554;2023-05-24T12:50:52;72531.41;;;-143.60;21.02
68329;BME280;55182;56.864;60.554;2023-05-24T12:53:18;72533.41;;;-143.60;20.99
68329;BME280;55182;56.864;60.554;2023-05-24T12:55:43;72527.41;;;-143.60;21.03